sensor_id;sensor_type;location;lat;lon;timestamp;pressure;altitude;pressure_sealevel;temperature;humidity
43934;BME280;59081;42.706;23.306;2023-01-13T00:01:25;95465.47;;;0.91;100.00
43934;BME280;59081;42.706;23.306;2023-01-13T00:03:51;95403.66;;;0.44;100.00
43934;BME280;59081;42.706;23.306;2023-01-13T00:06:19;95580.66;;;1.87;100.00
43934;BME280;59081;42.706;23.306;2023-01-13T00:08:49;95474.06;;;1.27;100.00
43934;BME280;59081;42.706;23.306;2023-01-13T00:11:16;95427.44;;;0.84;100.00
43934;BME280;59081;42.706;23.306;2023-01-13T00:13:42;95520.47;;;1.48;100.00
43934;BME280;59081;42.706;23.306;2023-01-13T00:16:12;95547.25;;;1.50;100.00
43934;BME280;59081;42.706;23.306;2023-01-13T00:18:42;95422.34;;;0.53;100.00
43934;BME280;59081;42.706;23.306;2023-01-13T00:21:18;95492.06;;;1.09;100.00
43934;BME280;59081;42.706;23.306;2023-01-13T00:23:44;95512.16;;;1.34;100.00
43934;BME280;59081;42.706;23.306;2023-01-13T00:26:14;95522.84;;;1.53;100.00
43934;BME280;59081;42.706;23.306;2023-01-13T00:28:40;95450.88;;;0.99;100.00
43934;BME280;59081;42.706;23.306;2023-01-13T00:31:07;95387.50;;;0.51;100.00
43934;BME280;59081;42.706;23.306;2023-01-13T00:33:33;95480.47;;;1.12;100.00
43934;BME280;59081;42.706;23.306;2023-01-13T00:36:00;95491.28;;;1.08;100.00
43934;BME280;59081;42.706;23.306;2023-01-13T00:38:27;95511.63;;;1.25;100.00
43934;BME280;59081;42.706;23.306;2023-01-13T00:43:27;95613.22;;;2.21;100.00
43934;BME280;59081;42.706;23.306;2023-01-13T00:45:54;95391.13;;;0.62;100.00
43934;BME280;59081;42.706;23.306;2023-01-13T00:48:21;95435.88;;;0.79;100.00
43934;BME280;59081;42.706;23.306;2023-01-13T00:51:00;95447.16;;;0.81;100.00
43934;BME280;59081;42.706;23.306;2023-01-13T00:53:27;95386.19;;;0.42;100.00
43934;BME280;59081;42.706;23.306;2023-01-13T00:56:07;95517.16;;;1.32;100.00
43934;BME280;59081;42.706;23.306;2023-01-13T00:58:34;95480.72;;;1.33;100.00
43934;BME280;59081;42.706;23.306;2023-01-13T01:01:08;95377.06;;;0.53;100.00
43934;BME280;59081;42.706;23.306;2023-01-13T01:03:35;95445.28;;;0.85;100.00
43934;BME280;59081;42.706;23.306;2023-01-13T01:06:09;95562.50;;;1.61;100.00
43934;BME280;59081;42.706;23.306;2023-01-13T01:08:35;95446.00;;;0.82;100.00
43934;BME280;59081;42.706;23.306;2023-01-13T01:11:05;95592.25;;;1.84;100.00
43934;BME280;59081;42.706;23.306;2023-01-13T01:13:35;95464.59;;;1.14;100.00
43934;BME280;59081;42.706;23.306;2023-01-13T01:16:06;95406.97;;;0.90;100.00
43934;BME280;59081;42.706;23.306;2023-01-13T01:18:37;95551.72;;;1.68;100.00
43934;BME280;59081;42.706;23.306;2023-01-13T01:21:06;95406.44;;;0.78;100.00
43934;BME280;59081;42.706;23.306;2023-01-13T01:23:35;95475.00;;;1.08;100.00
43934;BME280;59081;42.706;23.306;2023-01-13T01:26:06;95588.38;;;1.85;100.00
43934;BME280;59081;42.706;23.306;2023-01-13T01:28:32;95477.81;;;1.15;100.00
43934;BME280;59081;42.706;23.306;2023-01-13T01:30:58;95473.47;;;1.44;100.00
43934;BME280;59081;42.706;23.306;2023-01-13T01:33:24;95369.63;;;0.77;100.00
43934;BME280;59081;42.706;23.306;2023-01-13T01:35:53;95343.31;;;0.47;100.00
43934;BME280;59081;42.706;23.306;2023-01-13T01:38:19;95425.16;;;0.90;100.00
43934;BME280;59081;42.706;23.306;2023-01-13T01:40:46;95333.63;;;0.16;100.00
43934;BME280;59081;42.706;23.306;2023-01-13T01:43:17;95583.69;;;1.82;100.00
43934;BME280;59081;42.706;23.306;2023-01-13T01:46:01;95498.53;;;1.30;100.00
43934;BME280;59081;42.706;23.306;2023-01-13T01:48:36;95458.59;;;1.31;100.00
43934;BME280;59081;42.706;23.306;2023-01-13T01:51:07;95446.28;;;1.03;100.00
43934;BME280;59081;42.706;23.306;2023-01-13T01:53:34;95433.41;;;0.97;100.00
43934;BME280;59081;42.706;23.306;2023-01-13T01:56:00;95468.06;;;1.11;100.00
43934;BME280;59081;42.706;23.306;2023-01-13T01:58:34;95467.56;;;1.01;100.00
43934;BME280;59081;42.706;23.306;2023-01-13T02:01:01;95427.28;;;0.74;100.00
43934;BME280;59081;42.706;23.306;2023-01-13T02:03:28;95401.84;;;0.82;100.00
43934;BME280;59081;42.706;23.306;2023-01-13T02:05:54;95584.06;;;2.18;100.00
43934;BME280;59081;42.706;23.306;2023-01-13T02:08:20;95383.53;;;0.75;100.00
43934;BME280;59081;42.706;23.306;2023-01-13T02:10:49;95330.03;;;0.39;100.00
43934;BME280;59081;42.706;23.306;2023-01-13T02:13:18;95485.22;;;1.22;100.00
43934;BME280;59081;42.706;23.306;2023-01-13T02:16:20;95538.38;;;1.56;100.00
43934;BME280;59081;42.706;23.306;2023-01-13T02:30:38;95575.91;;;1.81;100.00
43934;BME280;59081;42.706;23.306;2023-01-13T02:33:43;95584.38;;;1.75;100.00
43934;BME280;59081;42.706;23.306;2023-01-13T02:38:56;95499.22;;;1.57;100.00
43934;BME280;59081;42.706;23.306;2023-01-13T02:42:12;95391.78;;;0.82;100.00
43934;BME280;59081;42.706;23.306;2023-01-13T02:44:58;95569.66;;;1.77;100.00
43934;BME280;59081;42.706;23.306;2023-01-13T02:47:29;95552.13;;;1.70;100.00
43934;BME280;59081;42.706;23.306;2023-01-13T02:50:11;95495.56;;;1.43;100.00
43934;BME280;59081;42.706;23.306;2023-01-13T02:52:41;95563.56;;;1.87;100.00
43934;BME280;59081;42.706;23.306;2023-01-13T02:55:22;95441.44;;;1.20;100.00
43934;BME280;59081;42.706;23.306;2023-01-13T02:57:52;95471.06;;;1.35;100.00
43934;BME280;59081;42.706;23.306;2023-01-13T03:00:26;95371.47;;;0.69;100.00
43934;BME280;59081;42.706;23.306;2023-01-13T03:02:52;95372.94;;;0.63;100.00
43934;BME280;59081;42.706;23.306;2023-01-13T03:05:18;95469.03;;;1.29;100.00
43934;BME280;59081;42.706;23.306;2023-01-13T03:15:48;95567.97;;;1.98;100.00
43934;BME280;59081;42.706;23.306;2023-01-13T03:18:30;95562.06;;;1.93;100.00
43934;BME280;59081;42.706;23.306;2023-01-13T03:21:19;95476.44;;;1.32;100.00
43934;BME280;59081;42.706;23.306;2023-01-13T03:26:39;95394.84;;;0.81;100.00
43934;BME280;59081;42.706;23.306;2023-01-13T03:31:50;95504.38;;;1.66;100.00
43934;BME280;59081;42.706;23.306;2023-01-13T03:34:21;95441.81;;;1.22;100.00
43934;BME280;59081;42.706;23.306;2023-01-13T03:36:52;95467.00;;;1.22;100.00
43934;BME280;59081;42.706;23.306;2023-01-13T03:39:26;95516.47;;;1.38;100.00
43934;BME280;59081;42.706;23.306;2023-01-13T03:41:57;95560.88;;;1.57;100.00
43934;BME280;59081;42.706;23.306;2023-01-13T03:44:40;95334.41;;;0.17;100.00
43934;BME280;59081;42.706;23.306;2023-01-13T03:47:27;95575.16;;;2.17;100.00
43934;BME280;59081;42.706;23.306;2023-01-13T03:50:10;95387.44;;;0.78;100.00
43934;BME280;59081;42.706;23.306;2023-01-13T03:52:54;95461.06;;;1.10;100.00
43934;BME280;59081;42.706;23.306;2023-01-13T03:55:27;95465.66;;;1.05;100.00
43934;BME280;59081;42.706;23.306;2023-01-13T03:58:28;95576.06;;;1.95;100.00
43934;BME280;59081;42.706;23.306;2023-01-13T04:00:57;95538.72;;;1.51;100.00
43934;BME280;59081;42.706;23.306;2023-01-13T04:03:32;95555.00;;;1.85;100.00
43934;BME280;59081;42.706;23.306;2023-01-13T04:08:43;95598.63;;;1.99;100.00
43934;BME280;59081;42.706;23.306;2023-01-13T04:11:18;95475.09;;;1.15;100.00
43934;BME280;59081;42.706;23.306;2023-01-13T04:13:47;95421.13;;;0.77;100.00
43934;BME280;59081;42.706;23.306;2023-01-13T04:16:14;95475.34;;;1.07;100.00
43934;BME280;59081;42.706;23.306;2023-01-13T04:18:39;95498.53;;;1.30;100.00
43934;BME280;59081;42.706;23.306;2023-01-13T04:21:06;95455.78;;;1.20;100.00
43934;BME280;59081;42.706;23.306;2023-01-13T04:23:32;95488.91;;;1.36;100.00
43934;BME280;59081;42.706;23.306;2023-01-13T04:25:58;95502.50;;;1.36;100.00
43934;BME280;59081;42.706;23.306;2023-01-13T04:28:24;95543.06;;;1.59;100.00
43934;BME280;59081;42.706;23.306;2023-01-13T04:30:50;95503.19;;;1.30;100.00
43934;BME280;59081;42.706;23.306;2023-01-13T04:33:17;95500.09;;;1.31;100.00
43934;BME280;59081;42.706;23.306;2023-01-13T04:35:44;95502.34;;;1.26;100.00
43934;BME280;59081;42.706;23.306;2023-01-13T04:38:13;95496.13;;;1.55;100.00
43934;BME280;59081;42.706;23.306;2023-01-13T04:40:40;95603.81;;;2.11;100.00
43934;BME280;59081;42.706;23.306;2023-01-13T04:43:05;95497.00;;;1.33;100.00
43934;BME280;59081;42.706;23.306;2023-01-13T04:45:31;95564.84;;;1.63;100.00
43934;BME280;59081;42.706;23.306;2023-01-13T04:47:57;95597.69;;;1.84;100.00
43934;BME280;59081;42.706;23.306;2023-01-13T04:50:22;95611.75;;;1.93;100.00
43934;BME280;59081;42.706;23.306;2023-01-13T04:52:49;95553.91;;;1.56;100.00
43934;BME280;59081;42.706;23.306;2023-01-13T04:55:16;95602.19;;;2.03;100.00
43934;BME280;59081;42.706;23.306;2023-01-13T04:57:42;95469.94;;;1.07;100.00
43934;BME280;59081;42.706;23.306;2023-01-13T05:00:09;95483.34;;;1.26;100.00
43934;BME280;59081;42.706;23.306;2023-01-13T05:02:35;95392.53;;;0.53;100.00
43934;BME280;59081;42.706;23.306;2023-01-13T05:05:01;95482.75;;;1.10;100.00
43934;BME280;59081;42.706;23.306;2023-01-13T05:07:27;95333.47;;;0.06;100.00
43934;BME280;59081;42.706;23.306;2023-01-13T05:09:52;95610.97;;;1.93;100.00
43934;BME280;59081;42.706;23.306;2023-01-13T05:12:18;95541.28;;;1.74;100.00
43934;BME280;59081;42.706;23.306;2023-01-13T05:15:02;95449.56;;;1.20;100.00
43934;BME280;59081;42.706;23.306;2023-01-13T05:17:47;95508.25;;;1.31;100.00
43934;BME280;59081;42.706;23.306;2023-01-13T05:20:13;95535.13;;;1.44;100.00
43934;BME280;59081;42.706;23.306;2023-01-13T05:22:38;95354.09;;;0.14;100.00
43934;BME280;59081;42.706;23.306;2023-01-13T05:25:23;95516.88;;;1.11;100.00
43934;BME280;59081;42.706;23.306;2023-01-13T05:27:57;95539.03;;;1.46;100.00
43934;BME280;59081;42.706;23.306;2023-01-13T05:30:31;95542.38;;;1.66;100.00
43934;BME280;59081;42.706;23.306;2023-01-13T05:32:57;95496.91;;;1.26;100.00
43934;BME280;59081;42.706;23.306;2023-01-13T05:35:23;95499.56;;;1.19;100.00
43934;BME280;59081;42.706;23.306;2023-01-13T05:37:49;95552.13;;;1.37;100.00
43934;BME280;59081;42.706;23.306;2023-01-13T05:40:16;95610.06;;;1.82;100.00
43934;BME280;59081;42.706;23.306;2023-01-13T05:45:48;95623.56;;;2.08;100.00
43934;BME280;59081;42.706;23.306;2023-01-13T05:48:15;95517.75;;;1.48;100.00
43934;BME280;59081;42.706;23.306;2023-01-13T05:50:41;95516.00;;;1.33;100.00
43934;BME280;59081;42.706;23.306;2023-01-13T05:53:07;95498.22;;;1.05;100.00
43934;BME280;59081;42.706;23.306;2023-01-13T05:55:33;95630.66;;;1.83;100.00
43934;BME280;59081;42.706;23.306;2023-01-13T05:57:58;95457.88;;;0.74;100.00
43934;BME280;59081;42.706;23.306;2023-01-13T06:00:24;95506.28;;;0.98;100.00
43934;BME280;59081;42.706;23.306;2023-01-13T06:02:50;95469.91;;;1.03;100.00
43934;BME280;59081;42.706;23.306;2023-01-13T06:05:16;95542.81;;;1.68;100.00
43934;BME280;59081;42.706;23.306;2023-01-13T06:07:41;95615.97;;;1.87;100.00
43934;BME280;59081;42.706;23.306;2023-01-13T06:10:07;95523.63;;;1.24;100.00
43934;BME280;59081;42.706;23.306;2023-01-13T06:12:33;95651.34;;;1.94;100.00
43934;BME280;59081;42.706;23.306;2023-01-13T06:14:58;95544.16;;;1.21;100.00
43934;BME280;59081;42.706;23.306;2023-01-13T06:17:24;95492.09;;;0.82;100.00
43934;BME280;59081;42.706;23.306;2023-01-13T06:19:49;95445.47;;;0.43;100.00
43934;BME280;59081;42.706;23.306;2023-01-13T06:22:23;95507.84;;;0.73;100.00
43934;BME280;59081;42.706;23.306;2023-01-13T06:24:52;95532.97;;;0.70;100.00
43934;BME280;59081;42.706;23.306;2023-01-13T06:27:20;95543.03;;;0.69;100.00
43934;BME280;59081;42.706;23.306;2023-01-13T06:29:46;95495.75;;;0.67;100.00
43934;BME280;59081;42.706;23.306;2023-01-13T06:32:17;95577.84;;;1.17;100.00
43934;BME280;59081;42.706;23.306;2023-01-13T06:34:47;95585.56;;;1.15;100.00
43934;BME280;59081;42.706;23.306;2023-01-13T06:37:15;95434.91;;;0.34;100.00
43934;BME280;59081;42.706;23.306;2023-01-13T06:39:44;95564.09;;;1.32;100.00
43934;BME280;59081;42.706;23.306;2023-01-13T06:42:10;95533.41;;;0.98;100.00
43934;BME280;59081;42.706;23.306;2023-01-13T06:44:54;95609.53;;;1.39;100.00
43934;BME280;59081;42.706;23.306;2023-01-13T06:47:20;95463.78;;;0.53;100.00
43934;BME280;59081;42.706;23.306;2023-01-13T06:49:46;95586.34;;;1.45;100.00
43934;BME280;59081;42.706;23.306;2023-01-13T06:52:12;95556.91;;;1.17;100.00
43934;BME280;59081;42.706;23.306;2023-01-13T06:54:37;95552.75;;;1.27;100.00
43934;BME280;59081;42.706;23.306;2023-01-13T06:57:03;95610.53;;;1.57;100.00
43934;BME280;59081;42.706;23.306;2023-01-13T06:59:28;95543.28;;;1.14;100.00
43934;BME280;59081;42.706;23.306;2023-01-13T07:01:54;95538.59;;;1.11;100.00
43934;BME280;59081;42.706;23.306;2023-01-13T07:04:19;95624.03;;;1.80;100.00
43934;BME280;59081;42.706;23.306;2023-01-13T07:06:45;95478.13;;;0.80;100.00
43934;BME280;59081;42.706;23.306;2023-01-13T07:09:11;95474.53;;;0.73;100.00
43934;BME280;59081;42.706;23.306;2023-01-13T07:11:36;95600.16;;;1.63;100.00
43934;BME280;59081;42.706;23.306;2023-01-13T07:14:02;95455.91;;;0.71;100.00
43934;BME280;59081;42.706;23.306;2023-01-13T07:16:46;95518.56;;;1.22;100.00
43934;BME280;59081;42.706;23.306;2023-01-13T07:19:11;95599.94;;;1.79;100.00
43934;BME280;59081;42.706;23.306;2023-01-13T07:21:37;95654.28;;;2.12;100.00
43934;BME280;59081;42.706;23.306;2023-01-13T07:24:02;95541.75;;;1.46;100.00
43934;BME280;59081;42.706;23.306;2023-01-13T07:26:28;95604.53;;;1.74;100.00
43934;BME280;59081;42.706;23.306;2023-01-13T07:28:53;95541.75;;;1.46;100.00
43934;BME280;59081;42.706;23.306;2023-01-13T07:31:20;95595.50;;;1.97;100.00
43934;BME280;59081;42.706;23.306;2023-01-13T07:33:46;95534.50;;;1.57;100.00
43934;BME280;59081;42.706;23.306;2023-01-13T07:36:13;95567.28;;;1.71;100.00
43934;BME280;59081;42.706;23.306;2023-01-13T07:38:39;95592.94;;;1.78;100.00
43934;BME280;59081;42.706;23.306;2023-01-13T07:41:11;95543.06;;;1.59;100.00
43934;BME280;59081;42.706;23.306;2023-01-13T07:43:55;95519.06;;;1.61;100.00
43934;BME280;59081;42.706;23.306;2023-01-13T07:46:20;95466.00;;;1.34;100.00
43934;BME280;59081;42.706;23.306;2023-01-13T07:48:46;95427.59;;;0.98;100.00
43934;BME280;59081;42.706;23.306;2023-01-13T07:51:13;95498.63;;;1.37;100.00
43934;BME280;59081;42.706;23.306;2023-01-13T07:53:38;95459.28;;;1.21;100.00
43934;BME280;59081;42.706;23.306;2023-01-13T07:56:05;95511.38;;;1.67;100.00
43934;BME280;59081;42.706;23.306;2023-01-13T07:58:34;95635.22;;;2.45;100.00
43934;BME280;59081;42.706;23.306;2023-01-13T08:01:06;95524.56;;;1.68;100.00
43934;BME280;59081;42.706;23.306;2023-01-13T08:03:33;95570.41;;;2.07;100.00
43934;BME280;59081;42.706;23.306;2023-01-13T08:06:00;95555.47;;;1.94;100.00
43934;BME280;59081;42.706;23.306;2023-01-13T08:08:26;95441.22;;;1.35;100.00
43934;BME280;59081;42.706;23.306;2023-01-13T08:10:51;95481.16;;;1.72;100.00
43934;BME280;59081;42.706;23.306;2023-01-13T08:13:18;95623.19;;;2.47;100.00
43934;BME280;59081;42.706;23.306;2023-01-13T08:15:51;95588.09;;;2.31;100.00
43934;BME280;59081;42.706;23.306;2023-01-13T08:18:20;95625.66;;;2.59;100.00
43934;BME280;59081;42.706;23.306;2023-01-13T08:20:50;95659.69;;;2.86;100.00
43934;BME280;59081;42.706;23.306;2023-01-13T08:23:17;95581.19;;;2.40;100.00
43934;BME280;59081;42.706;23.306;2023-01-13T08:25:43;95552.28;;;2.25;100.00
43934;BME280;59081;42.706;23.306;2023-01-13T08:28:09;95659.00;;;2.93;100.00
43934;BME280;59081;42.706;23.306;2023-01-13T08:30:34;95648.94;;;3.00;100.00
43934;BME280;59081;42.706;23.306;2023-01-13T08:33:00;95593.81;;;2.63;100.00
43934;BME280;59081;42.706;23.306;2023-01-13T08:35:26;95654.59;;;3.29;100.00
43934;BME280;59081;42.706;23.306;2023-01-13T08:37:51;95655.09;;;3.48;100.00
43934;BME280;59081;42.706;23.306;2023-01-13T08:40:18;95479.69;;;2.26;100.00
43934;BME280;59081;42.706;23.306;2023-01-13T08:42:45;95538.13;;;2.46;100.00
43934;BME280;59081;42.706;23.306;2023-01-13T08:45:12;95567.50;;;2.77;100.00
43934;BME280;59081;42.706;23.306;2023-01-13T08:47:38;95542.72;;;2.90;100.00
43934;BME280;59081;42.706;23.306;2023-01-13T08:50:04;95505.59;;;2.60;100.00
43934;BME280;59081;42.706;23.306;2023-01-13T08:52:30;95663.72;;;3.58;100.00
43934;BME280;59081;42.706;23.306;2023-01-13T08:54:56;95508.00;;;2.69;100.00
43934;BME280;59081;42.706;23.306;2023-01-13T08:57:21;95554.91;;;3.10;99.94
43934;BME280;59081;42.706;23.306;2023-01-13T08:59:47;95529.53;;;2.95;98.70
43934;BME280;59081;42.706;23.306;2023-01-13T09:02:14;95597.50;;;3.43;97.99
43934;BME280;59081;42.706;23.306;2023-01-13T09:04:40;95620.19;;;3.61;97.64
43934;BME280;59081;42.706;23.306;2023-01-13T09:07:06;95554.25;;;3.34;97.63
43934;BME280;59081;42.706;23.306;2023-01-13T09:09:31;95596.84;;;3.67;95.14
43934;BME280;59081;42.706;23.306;2023-01-13T09:11:57;95577.75;;;3.64;96.43
43934;BME280;59081;42.706;23.306;2023-01-13T09:14:40;95628.47;;;3.90;96.17
43934;BME280;59081;42.706;23.306;2023-01-13T09:17:06;95502.44;;;3.17;95.37
43934;BME280;59081;42.706;23.306;2023-01-13T09:19:32;95578.16;;;3.62;95.80
43934;BME280;59081;42.706;23.306;2023-01-13T09:21:58;95507.94;;;3.24;94.98
43934;BME280;59081;42.706;23.306;2023-01-13T09:24:24;95556.38;;;3.69;94.04
43934;BME280;59081;42.706;23.306;2023-01-13T09:26:50;95589.97;;;3.95;92.41
43934;BME280;59081;42.706;23.306;2023-01-13T09:29:16;95542.63;;;3.37;94.26
43934;BME280;59081;42.706;23.306;2023-01-13T09:31:42;95560.81;;;3.23;96.67
43934;BME280;59081;42.706;23.306;2023-01-13T09:34:14;95511.72;;;3.05;96.17
43934;BME280;59081;42.706;23.306;2023-01-13T09:37:18;95616.44;;;3.98;95.24
43934;BME280;59081;42.706;23.306;2023-01-13T09:39:43;95509.50;;;3.25;93.64
43934;BME280;59081;42.706;23.306;2023-01-13T09:42:18;95641.34;;;4.00;94.66
43934;BME280;59081;42.706;23.306;2023-01-13T09:45:09;95571.84;;;3.44;96.30
43934;BME280;59081;42.706;23.306;2023-01-13T09:52:40;95529.38;;;3.36;94.99
43934;BME280;59081;42.706;23.306;2023-01-13T09:55:25;95557.94;;;3.70;93.58
43934;BME280;59081;42.706;23.306;2023-01-13T09:57:54;95453.88;;;3.26;91.96
43934;BME280;59081;42.706;23.306;2023-01-13T10:01:05;95637.63;;;4.43;91.53
43934;BME280;59081;42.706;23.306;2023-01-13T10:03:28;95529.16;;;3.73;91.53
43934;BME280;59081;42.706;23.306;2023-01-13T10:08:33;95586.50;;;4.08;92.40
43934;BME280;59081;42.706;23.306;2023-01-13T10:11:04;95534.63;;;3.80;92.25
43934;BME280;59081;42.706;23.306;2023-01-13T10:19:43;95479.22;;;3.37;91.31
43934;BME280;59081;42.706;23.306;2023-01-13T10:27:31;95495.31;;;3.77;90.19
43934;BME280;59081;42.706;23.306;2023-01-13T10:30:08;95467.63;;;3.61;91.21
43934;BME280;59081;42.706;23.306;2023-01-13T10:32:34;95610.34;;;4.50;90.97
43934;BME280;59081;42.706;23.306;2023-01-13T10:34:59;95550.72;;;4.31;90.46
43934;BME280;59081;42.706;23.306;2023-01-13T10:37:27;95420.88;;;3.48;89.81
43934;BME280;59081;42.706;23.306;2023-01-13T10:39:59;95497.25;;;3.84;91.02
43934;BME280;59081;42.706;23.306;2023-01-13T10:42:25;95498.84;;;4.03;90.11
43934;BME280;59081;42.706;23.306;2023-01-13T10:44:55;95464.16;;;3.82;90.51
43934;BME280;59081;42.706;23.306;2023-01-13T10:47:25;95586.97;;;4.71;90.79
43934;BME280;59081;42.706;23.306;2023-01-13T10:52:30;95444.72;;;3.87;89.46
43934;BME280;59081;42.706;23.306;2023-01-13T10:54:56;95519.13;;;4.19;90.24
43934;BME280;59081;42.706;23.306;2023-01-13T10:57:23;95479.75;;;3.89;90.72
43934;BME280;59081;42.706;23.306;2023-01-13T10:59:50;95451.28;;;3.61;91.86
43934;BME280;59081;42.706;23.306;2023-01-13T11:02:35;95459.09;;;3.73;92.29
43934;BME280;59081;42.706;23.306;2023-01-13T11:05:11;95440.00;;;3.59;91.15
43934;BME280;59081;42.706;23.306;2023-01-13T11:07:49;95576.06;;;4.57;91.15
43934;BME280;59081;42.706;23.306;2023-01-13T11:10:17;95536.63;;;4.08;92.27
43934;BME280;59081;42.706;23.306;2023-01-13T11:15:30;95416.94;;;3.32;92.91
43934;BME280;59081;42.706;23.306;2023-01-13T11:18:00;95574.47;;;4.27;93.31
43934;BME280;59081;42.706;23.306;2023-01-13T11:20:34;95444.22;;;3.49;93.48
43934;BME280;59081;42.706;23.306;2023-01-13T11:23:07;95484.81;;;3.87;92.60
43934;BME280;59081;42.706;23.306;2023-01-13T11:25:39;95523.41;;;4.17;92.66
43934;BME280;59081;42.706;23.306;2023-01-13T11:31:14;95568.22;;;4.23;93.69
43934;BME280;59081;42.706;23.306;2023-01-13T11:33:59;95527.25;;;3.80;95.56
43934;BME280;59081;42.706;23.306;2023-01-13T11:36:41;95467.25;;;3.63;94.78
43934;BME280;59081;42.706;23.306;2023-01-13T11:39:18;95562.00;;;4.30;94.10
43934;BME280;59081;42.706;23.306;2023-01-13T11:42:15;95565.88;;;4.18;95.24
43934;BME280;59081;42.706;23.306;2023-01-13T11:45:12;95560.44;;;4.25;95.12
43934;BME280;59081;42.706;23.306;2023-01-13T11:47:45;95516.75;;;4.04;95.28
43934;BME280;59081;42.706;23.306;2023-01-13T11:50:17;95421.28;;;3.54;95.10
43934;BME280;59081;42.706;23.306;2023-01-13T11:55:50;95512.91;;;4.15;94.35
43934;BME280;59081;42.706;23.306;2023-01-13T12:04:58;95502.78;;;4.23;94.08
43934;BME280;59081;42.706;23.306;2023-01-13T12:07:19;95542.53;;;4.52;94.08
43934;BME280;59081;42.706;23.306;2023-01-13T12:12:30;95543.72;;;4.44;93.82
43934;BME280;59081;42.706;23.306;2023-01-13T12:17:56;95440.84;;;4.09;90.72
43934;BME280;59081;42.706;23.306;2023-01-13T12:20:37;95334.88;;;3.33;91.15
43934;BME280;59081;42.706;23.306;2023-01-13T12:23:31;95469.66;;;4.07;91.70
43934;BME280;59081;42.706;23.306;2023-01-13T12:26:19;95549.56;;;4.93;92.76
43934;BME280;59081;42.706;23.306;2023-01-13T12:28:50;95356.69;;;3.65;90.94
43934;BME280;59081;42.706;23.306;2023-01-13T12:31:18;95385.91;;;3.82;89.82
43934;BME280;59081;42.706;23.306;2023-01-13T12:33:59;95520.31;;;4.68;90.14
43934;BME280;59081;42.706;23.306;2023-01-13T12:39:27;95542.16;;;4.79;91.02
43934;BME280;59081;42.706;23.306;2023-01-13T12:42:03;95537.81;;;5.03;90.29
43934;BME280;59081;42.706;23.306;2023-01-13T12:47:36;95331.41;;;3.68;89.12
43934;BME280;59081;42.706;23.306;2023-01-13T12:50:38;95362.97;;;3.98;88.38
43934;BME280;59081;42.706;23.306;2023-01-13T12:53:43;95449.38;;;4.50;88.70
43934;BME280;59081;42.706;23.306;2023-01-13T13:01:41;95523.06;;;4.79;89.87
43934;BME280;59081;42.706;23.306;2023-01-13T13:04:10;95476.66;;;4.36;90.23
43934;BME280;59081;42.706;23.306;2023-01-13T13:06:40;95382.81;;;3.88;90.15
43934;BME280;59081;42.706;23.306;2023-01-13T13:09:29;95543.28;;;5.13;87.97
43934;BME280;59081;42.706;23.306;2023-01-13T13:11:57;95401.88;;;4.16;87.68
43934;BME280;59081;42.706;23.306;2023-01-13T13:19:54;95418.63;;;3.90;90.00
43934;BME280;59081;42.706;23.306;2023-01-13T13:22:37;95504.69;;;5.04;93.21
43934;BME280;59081;42.706;23.306;2023-01-13T13:27:57;95435.78;;;4.22;91.85
43934;BME280;59081;42.706;23.306;2023-01-13T13:30:33;95561.25;;;4.93;90.42
43934;BME280;59081;42.706;23.306;2023-01-13T13:39:08;95421.72;;;3.70;91.98
43934;BME280;59081;42.706;23.306;2023-01-13T13:42:03;95359.38;;;3.30;91.76
43934;BME280;59081;42.706;23.306;2023-01-13T13:44:52;95463.81;;;4.26;90.85
43934;BME280;59081;42.706;23.306;2023-01-13T13:47:37;95562.03;;;4.72;90.89
43934;BME280;59081;42.706;23.306;2023-01-13T13:50:21;95477.44;;;4.05;91.36
43934;BME280;59081;42.706;23.306;2023-01-13T13:55:26;95493.44;;;4.24;91.39
43934;BME280;59081;42.706;23.306;2023-01-13T13:57:54;95567.88;;;4.71;91.78
43934;BME280;59081;42.706;23.306;2023-01-13T14:00:32;95570.63;;;4.60;92.33
43934;BME280;59081;42.706;23.306;2023-01-13T14:03:07;95567.88;;;4.49;94.23
43934;BME280;59081;42.706;23.306;2023-01-13T14:05:52;95528.50;;;4.36;94.09
43934;BME280;59081;42.706;23.306;2023-01-13T14:08:18;95476.28;;;4.13;92.94
43934;BME280;59081;42.706;23.306;2023-01-13T14:10:44;95412.34;;;3.64;93.65
43934;BME280;59081;42.706;23.306;2023-01-13T14:13:25;95458.72;;;3.85;94.32
43934;BME280;59081;42.706;23.306;2023-01-13T14:16:00;95544.06;;;4.25;95.51
43934;BME280;59081;42.706;23.306;2023-01-13T14:18:28;95421.69;;;3.56;95.79
43934;BME280;59081;42.706;23.306;2023-01-13T14:21:03;95431.41;;;3.64;95.38
43934;BME280;59081;42.706;23.306;2023-01-13T14:23:30;95417.00;;;3.49;94.73
43934;BME280;59081;42.706;23.306;2023-01-13T14:26:07;95572.50;;;4.35;96.07
43934;BME280;59081;42.706;23.306;2023-01-13T14:28:35;95465.31;;;3.81;96.48
43934;BME280;59081;42.706;23.306;2023-01-13T14:31:03;95493.03;;;4.08;95.17
43934;BME280;59081;42.706;23.306;2023-01-13T14:33:48;95568.25;;;4.51;95.55
43934;BME280;59081;42.706;23.306;2023-01-13T14:39:22;95572.88;;;4.08;98.83
43934;BME280;59081;42.706;23.306;2023-01-13T14:46:40;95517.88;;;3.81;100.00
43934;BME280;59081;42.706;23.306;2023-01-13T14:54:52;95576.78;;;4.14;100.00
43934;BME280;59081;42.706;23.306;2023-01-13T14:57:30;95586.50;;;4.12;100.00
43934;BME280;59081;42.706;23.306;2023-01-13T15:02:44;95579.81;;;3.92;100.00
43934;BME280;59081;42.706;23.306;2023-01-13T15:07:54;95462.03;;;3.22;99.62
43934;BME280;59081;42.706;23.306;2023-01-13T15:12:56;95468.59;;;3.10;100.00
43934;BME280;59081;42.706;23.306;2023-01-13T15:15:23;95587.59;;;3.90;100.00
43934;BME280;59081;42.706;23.306;2023-01-13T15:17:49;95586.84;;;4.00;100.00
43934;BME280;59081;42.706;23.306;2023-01-13T15:20:17;95480.00;;;3.37;99.38
43934;BME280;59081;42.706;23.306;2023-01-13T15:22:44;95500.69;;;3.56;98.82